Time;durP1;ratioP1;P1;durP2;ratioP2;P2;SDS_P1;SDS_P2;PMS_P1;PMS_P2;Temp;Humidity;BMP_temperature;BMP_pressure;BME280_temperature;BME280_humidity;BME280_pressure;Samples;Min_cycle;Max_cycle;Signal;HPM_P1;HPM_P2
2023/01/29 04:02:20;;;;;;;;;;;-4.70;99.90;;;;;;5380991;23;19936;-71
2023/01/29 04:04:51;;;;;;;;;;;-4.60;99.90;;;;;;4998059;28;20381;-71
2023/01/29 04:07:23;;;;;;;;;;;-4.60;99.90;;;;;;4997349;28;19933;-71
2023/01/29 04:09:58;;;;;;;;;;;-4.70;99.90;;;;;;4998269;28;19925;-71
2023/01/29 04:12:26;;;;;;;;;;;-4.60;99.90;;;;;;4980163;28;19997;-71
2023/01/29 04:14:53;;;;;;;;;;;-4.50;99.90;;;;;;4988422;28;19980;-70
2023/01/29 04:17:23;;;;;;;;;;;-4.60;99.90;;;;;;4975114;28;19926;-72
2023/01/29 04:20:11;;;;;;;;;;;-4.70;99.90;;;;;;4982368;28;19934;-69
2023/01/29 04:22:42;;;;;;;;;;;-4.70;99.90;;;;;;4987525;28;19930;-73
2023/01/29 04:25:14;;;;;;;;;;;-4.70;99.90;;;;;;4986184;28;20392;-70
2023/01/29 04:27:43;;;;;;;;;;;-4.60;99.90;;;;;;4988395;28;19929;-71
2023/01/29 04:30:16;;;;;;;;;;;-4.50;99.90;;;;;;4987056;28;19944;-71
2023/01/29 04:32:54;;;;;;;;;;;-4.50;99.90;;;;;;4984221;28;19964;-71
2023/01/29 04:35:26;;;;;;;;;;;-4.50;99.90;;;;;;4966561;28;20278;-71
2023/01/29 04:37:59;;;;;;;;;;;-4.50;99.90;;;;;;4983845;28;19926;-70
2023/01/29 04:40:31;;;;;;;;;;;-4.60;99.90;;;;;;4988625;28;19976;-71
2023/01/29 04:43:03;;;;;;;;;;;-4.60;99.90;;;;;;4985549;28;19926;-70
2023/01/29 04:45:34;;;;;;;;;;;-4.60;99.90;;;;;;4989161;28;19926;-71
2023/01/29 04:48:09;;;;;;;;;;;-4.60;99.90;;;;;;4981920;28;19976;-74
2023/01/29 04:50:38;;;;;;;;;;;-4.60;99.90;;;;;;4985404;28;19930;-72
2023/01/29 04:53:07;;;;;;;;;;;-4.60;99.90;;;;;;4986248;28;20343;-72
2023/01/29 04:55:38;;;;;;;;;;;-4.70;99.90;;;;;;4987056;28;20032;-71
2023/01/29 04:58:09;;;;;;;;;;;-4.70;99.90;;;;;;4989355;28;19933;-71
2023/01/29 05:00:38;;;;;;;;;;;-4.80;99.90;;;;;;4985096;28;20419;-71
2023/01/29 05:03:08;;;;;;;;;;;-4.80;99.90;;;;;;4982897;28;19926;-71
2023/01/29 05:05:36;;;;;;;;;;;-4.80;99.90;;;;;;4988604;28;19926;-70
2023/01/29 05:08:03;;;;;;;;;;;-4.80;99.90;;;;;;4984655;28;20464;-71
2023/01/29 05:10:30;;;;;;;;;;;-4.80;99.90;;;;;;4989428;28;19926;-70
2023/01/29 05:12:59;;;;;;;;;;;-4.90;99.90;;;;;;4986147;28;19961;-72
2023/01/29 05:15:28;;;;;;;;;;;-4.80;99.90;;;;;;4986986;28;19925;-72
2023/01/29 05:18:01;;;;;;;;;;;-4.90;99.90;;;;;;4981605;28;19933;-72
2023/01/29 05:20:31;;;;;;;;;;;-4.90;99.90;;;;;;4984142;28;19926;-71
2023/01/29 05:22:58;;;;;;;;;;;-4.90;99.90;;;;;;4988426;28;19930;-73
2023/01/29 05:25:25;;;;;;;;;;;-4.90;99.90;;;;;;4980483;28;19933;-71
2023/01/29 05:28:04;;;;;;;;;;;-4.90;99.90;;;;;;4987174;28;20351;-70
2023/01/29 05:30:31;;;;;;;;;;;-5.80;99.90;;;;;;4982775;28;19933;-71
2023/01/29 05:32:58;;;;;;;;;;;-4.80;99.90;;;;;;4988099;28;20285;-71
2023/01/29 05:35:25;;;;;;;;;;;-4.80;99.90;;;;;;4983834;28;19926;-71
2023/01/29 05:37:53;;;;;;;;;;;-4.80;99.90;;;;;;4988457;28;19926;-73
2023/01/29 05:40:20;;;;;;;;;;;-4.80;99.90;;;;;;4985531;28;19980;-72
2023/01/29 05:42:47;;;;;;;;;;;-4.70;99.90;;;;;;4983097;28;19927;-70
2023/01/29 05:45:13;;;;;;;;;;;-4.70;99.90;;;;;;4981732;28;19930;-68
2023/01/29 05:47:40;;;;;;;;;;;-4.60;99.90;;;;;;4980513;28;20396;-71
2023/01/29 05:50:08;;;;;;;;;;;-4.70;99.90;;;;;;4987692;28;20336;-71
2023/01/29 05:52:34;;;;;;;;;;;-4.60;99.90;;;;;;4984337;28;20470;-73
2023/01/29 05:55:03;;;;;;;;;;;-4.70;99.90;;;;;;4988962;28;19988;-71
2023/01/29 05:57:30;;;;;;;;;;;-4.60;99.90;;;;;;4986401;28;19976;-71
2023/01/29 05:59:57;;;;;;;;;;;-4.40;99.90;;;;;;4991712;28;19926;-74
2023/01/29 06:02:23;;;;;;;;;;;-4.40;99.90;;;;;;4963612;28;20463;-72
2023/01/29 06:04:51;;;;;;;;;;;-4.50;99.90;;;;;;4965123;28;19927;-71
2023/01/29 06:07:17;;;;;;;;;;;-4.50;99.90;;;;;;4975457;28;20348;-73
2023/01/29 06:09:44;;;;;;;;;;;-4.50;99.90;;;;;;4982411;28;20393;-71
2023/01/29 06:12:12;;;;;;;;;;;-4.50;99.90;;;;;;4976184;28;19938;-70
2023/01/29 06:14:39;;;;;;;;;;;-4.40;99.90;;;;;;4981079;28;20413;-71
2023/01/29 06:17:06;;;;;;;;;;;-4.50;99.90;;;;;;4985793;28;19925;-72
2023/01/29 06:19:33;;;;;;;;;;;-4.50;99.90;;;;;;4984055;28;19981;-71
2023/01/29 06:21:59;;;;;;;;;;;-4.50;99.90;;;;;;4983713;28;19984;-70
2023/01/29 06:24:26;;;;;;;;;;;-4.60;99.90;;;;;;4977030;28;19926;-73
2023/01/29 06:26:53;;;;;;;;;;;-4.60;99.90;;;;;;4985709;28;19930;-70
2023/01/29 06:29:21;;;;;;;;;;;-4.60;99.90;;;;;;4990260;28;19926;-71
2023/01/29 06:31:48;;;;;;;;;;;-4.60;99.90;;;;;;4985841;28;19940;-70
2023/01/29 06:34:15;;;;;;;;;;;-4.60;99.90;;;;;;4990524;28;19993;-73
2023/01/29 06:36:42;;;;;;;;;;;-4.60;99.90;;;;;;4985952;28;19926;-71
2023/01/29 06:39:08;;;;;;;;;;;-4.60;99.90;;;;;;4990707;28;19993;-71
2023/01/29 06:41:35;;;;;;;;;;;-4.60;99.90;;;;;;4986205;28;19932;-73
2023/01/29 06:44:02;;;;;;;;;;;-4.60;99.90;;;;;;4989026;28;19977;-71
2023/01/29 06:46:30;;;;;;;;;;;-4.50;99.90;;;;;;4990197;28;19926;-71
2023/01/29 06:48:57;;;;;;;;;;;-4.50;99.90;;;;;;4984698;28;19988;-71
2023/01/29 06:51:24;;;;;;;;;;;-4.40;99.90;;;;;;4987167;28;20396;-72
2023/01/29 06:53:53;;;;;;;;;;;-4.40;99.90;;;;;;4986749;28;20345;-70
2023/01/29 06:56:20;;;;;;;;;;;-4.30;99.90;;;;;;4991312;28;19938;-71
2023/01/29 06:58:46;;;;;;;;;;;-4.20;99.90;;;;;;4989075;28;19926;-71
2023/01/29 07:01:13;;;;;;;;;;;-4.20;99.90;;;;;;4986974;28;19980;-71
2023/01/29 07:03:42;;;;;;;;;;;-4.10;99.90;;;;;;4988191;28;20340;-72
2023/01/29 07:06:09;;;;;;;;;;;-3.90;99.90;;;;;;4989637;28;19926;-73
2023/01/29 07:08:36;;;;;;;;;;;-3.80;99.90;;;;;;4979738;28;19985;-70
2023/01/29 07:11:03;;;;;;;;;;;-3.70;99.90;;;;;;4978251;28;19933;-71
2023/01/29 07:13:29;;;;;;;;;;;-3.50;99.90;;;;;;4983292;28;19933;-71
2023/01/29 07:15:58;;;;;;;;;;;-3.50;99.90;;;;;;4988771;28;19925;-69
2023/01/29 07:18:24;;;;;;;;;;;-3.30;99.90;;;;;;4981831;28;19930;-69
2023/01/29 07:20:52;;;;;;;;;;;-3.40;99.90;;;;;;4986237;28;20412;-71
2023/01/29 07:23:19;;;;;;;;;;;-3.30;99.90;;;;;;4975546;28;20286;-70
2023/01/29 07:25:48;;;;;;;;;;;-3.30;99.90;;;;;;4985183;28;19965;-73
2023/01/29 07:28:15;;;;;;;;;;;-3.20;99.90;;;;;;4988078;28;19930;-69
2023/01/29 07:30:42;;;;;;;;;;;-3.20;99.90;;;;;;4985133;28;19926;-71
2023/01/29 07:33:09;;;;;;;;;;;-3.00;99.90;;;;;;4984266;28;20363;-69
2023/01/29 07:35:36;;;;;;;;;;;-3.00;99.90;;;;;;4976768;28;19930;-72
2023/01/29 07:38:04;;;;;;;;;;;-3.00;99.90;;;;;;4968902;28;19926;-70
2023/01/29 07:40:31;;;;;;;;;;;-2.90;99.90;;;;;;4967844;28;19926;-70
2023/01/29 07:42:59;;;;;;;;;;;-2.80;99.90;;;;;;4971615;28;19933;-71
2023/01/29 07:45:27;;;;;;;;;;;-2.70;99.90;;;;;;4972636;28;19926;-72
2023/01/29 07:47:54;;;;;;;;;;;-2.70;99.90;;;;;;4995648;28;19933;-75
2023/01/29 07:50:21;;;;;;;;;;;-2.60;99.90;;;;;;4969342;28;19925;-74
2023/01/29 07:52:47;;;;;;;;;;;-2.50;99.90;;;;;;4976358;28;19985;-72
2023/01/29 07:55:16;;;;;;;;;;;-2.50;99.90;;;;;;4983627;28;19938;-70
2023/01/29 07:57:43;;;;;;;;;;;-2.40;99.90;;;;;;4978302;28;19961;-74
2023/01/29 08:00:11;;;;;;;;;;;-2.30;99.90;;;;;;4979481;28;19925;-72
2023/01/29 08:02:41;;;;;;;;;;;-2.20;99.90;;;;;;4975907;28;19929;-70
2023/01/29 08:05:08;;;;;;;;;;;-2.20;99.90;;;;;;4967927;28;19926;-71
2023/01/29 08:07:35;;;;;;;;;;;-2.10;99.90;;;;;;4977180;28;20553;-72
2023/01/29 08:10:01;;;;;;;;;;;-2.00;99.90;;;;;;4977339;28;19926;-73
2023/01/29 08:12:30;;;;;;;;;;;-2.00;99.90;;;;;;4982440;28;19930;-70
2023/01/29 08:14:56;;;;;;;;;;;-1.90;99.90;;;;;;4983551;28;19934;-71
2023/01/29 08:17:23;;;;;;;;;;;-1.90;99.90;;;;;;4982286;28;19926;-71
2023/01/29 08:19:50;;;;;;;;;;;-1.80;99.90;;;;;;4981539;28;20233;-70
2023/01/29 08:22:17;;;;;;;;;;;-1.80;99.90;;;;;;4968306;28;19930;-71
2023/01/29 08:24:43;;;;;;;;;;;-1.70;99.90;;;;;;4974367;28;19926;-72
2023/01/29 08:27:10;;;;;;;;;;;-1.70;99.90;;;;;;4982342;28;19933;-72
2023/01/29 08:29:38;;;;;;;;;;;-1.60;99.90;;;;;;4988124;28;19925;-72
2023/01/29 08:32:05;;;;;;;;;;;-1.50;99.90;;;;;;4983681;28;20322;-72
2023/01/29 08:34:32;;;;;;;;;;;-1.50;99.90;;;;;;4988496;28;20298;-73
2023/01/29 08:36:59;;;;;;;;;;;-1.40;99.90;;;;;;4985268;28;19930;-73
2023/01/29 08:39:25;;;;;;;;;;;-1.30;99.90;;;;;;4989735;28;19930;-72
2023/01/29 08:41:52;;;;;;;;;;;-1.20;99.90;;;;;;4978665;28;19926;-71
2023/01/29 08:44:19;;;;;;;;;;;-1.20;99.90;;;;;;4985124;28;20451;-72
2023/01/29 08:46:47;;;;;;;;;;;-1.10;99.90;;;;;;4983863;28;19926;-72
2023/01/29 08:49:14;;;;;;;;;;;-1.10;99.90;;;;;;4975170;28;19988;-71
2023/01/29 08:51:41;;;;;;;;;;;-1.10;99.90;;;;;;4988899;28;19926;-72
2023/01/29 08:54:07;;;;;;;;;;;-1.00;99.90;;;;;;4985498;28;19961;-73
2023/01/29 08:56:34;;;;;;;;;;;-1.00;99.90;;;;;;4985721;28;20488;-72
2023/01/29 08:59:00;;;;;;;;;;;-0.80;99.90;;;;;;4986328;28;19989;-72
2023/01/29 09:01:27;;;;;;;;;;;-0.70;99.90;;;;;;4984847;28;20384;-73
2023/01/29 09:03:55;;;;;;;;;;;-0.50;99.90;;;;;;4989603;28;19980;-73
2023/01/29 09:06:22;;;;;;;;;;;-0.40;99.90;;;;;;4980637;28;20429;-72
2023/01/29 09:08:49;;;;;;;;;;;-0.40;99.90;;;;;;4970030;28;19926;-71
2023/01/29 09:11:15;;;;;;;;;;;-0.40;99.90;;;;;;4972763;28;20193;-72
2023/01/29 09:13:42;;;;;;;;;;;-0.30;99.90;;;;;;4982393;28;20305;-72
2023/01/29 09:16:09;;;;;;;;;;;-0.20;99.90;;;;;;4986584;28;19930;-75
2023/01/29 09:18:36;;;;;;;;;;;-0.10;99.90;;;;;;4986548;28;20049;-72
2023/01/29 09:21:05;;;;;;;;;;;-0.10;99.90;;;;;;4986014;28;19930;-72
2023/01/29 09:23:31;;;;;;;;;;;0.00;99.90;;;;;;4978744;28;20306;-74
2023/01/29 09:25:58;;;;;;;;;;;0.20;99.90;;;;;;4982328;28;19929;-73
2023/01/29 09:28:25;;;;;;;;;;;0.30;99.90;;;;;;4984295;28;19930;-72
2023/01/29 09:30:52;;;;;;;;;;;0.30;99.90;;;;;;4986073;28;19925;-73
2023/01/29 09:33:19;;;;;;;;;;;0.40;99.90;;;;;;4988282;28;19926;-73
2023/01/29 09:35:46;;;;;;;;;;;0.50;99.90;;;;;;4991961;28;19926;-72
2023/01/29 09:38:14;;;;;;;;;;;0.60;99.90;;;;;;4989741;28;19926;-74
2023/01/29 09:40:46;;;;;;;;;;;0.50;99.90;;;;;;4986427;28;19996;-73
2023/01/29 09:43:14;;;;;;;;;;;0.50;99.90;;;;;;4990945;28;20339;-73
2023/01/29 09:45:43;;;;;;;;;;;0.60;99.90;;;;;;4983595;28;19938;-74
2023/01/29 09:48:11;;;;;;;;;;;0.60;99.90;;;;;;4985528;28;19930;-72
2023/01/29 09:50:39;;;;;;;;;;;0.60;99.90;;;;;;4976653;28;19934;-73
2023/01/29 09:53:11;;;;;;;;;;;0.90;99.90;;;;;;4970705;28;19930;-70
2023/01/29 09:55:43;;;;;;;;;;;1.00;99.90;;;;;;4986193;28;19941;-73
2023/01/29 09:58:14;;;;;;;;;;;1.30;99.90;;;;;;4970562;28;19926;-72
2023/01/29 10:00:45;;;;;;;;;;;1.50;99.90;;;;;;4990244;28;19926;-72
2023/01/29 10:03:19;;;;;;;;;;;1.40;99.90;;;;;;4980788;28;19961;-71
2023/01/29 10:05:55;;;;;;;;;;;1.50;99.90;;;;;;4974907;28;19926;-71
2023/01/29 10:08:41;;;;;;;;;;;1.50;99.90;;;;;;4986670;28;19926;-72
2023/01/29 10:11:12;;;;;;;;;;;1.70;99.90;;;;;;4983135;28;19930;-74
2023/01/29 10:13:44;;;;;;;;;;;1.60;99.90;;;;;;4972370;28;20386;-72
2023/01/29 10:16:17;;;;;;;;;;;1.80;99.90;;;;;;4972468;28;19941;-72
2023/01/29 10:18:52;;;;;;;;;;;2.10;99.90;;;;;;4967810;28;19927;-72
2023/01/29 10:21:35;;;;;;;;;;;2.20;99.90;;;;;;4975796;28;19933;-72
2023/01/29 10:24:05;;;;;;;;;;;2.10;99.90;;;;;;4972593;28;19950;-72
2023/01/29 10:26:36;;;;;;;;;;;2.40;99.90;;;;;;4979744;28;19926;-71
2023/01/29 10:29:06;;;;;;;;;;;2.60;99.90;;;;;;4986883;28;19926;-74
2023/01/29 10:31:37;;;;;;;;;;;2.90;99.90;;;;;;4987475;28;19926;-73
2023/01/29 10:34:07;;;;;;;;;;;3.00;99.90;;;;;;4990700;28;19926;-73
2023/01/29 10:36:36;;;;;;;;;;;2.90;99.90;;;;;;4983268;28;19930;-74
2023/01/29 10:39:03;;;;;;;;;;;2.90;99.90;;;;;;4981897;28;19926;-73
2023/01/29 10:41:47;;;;;;;;;;;3.00;99.90;;;;;;4982396;28;19926;-73
2023/01/29 10:44:19;;;;;;;;;;;2.90;99.90;;;;;;4991361;28;19930;-72
2023/01/29 10:46:51;;;;;;;;;;;2.70;99.90;;;;;;4985452;28;20344;-73
2023/01/29 10:49:27;;;;;;;;;;;2.40;99.90;;;;;;4961628;28;20389;-73
2023/01/29 10:52:04;;;;;;;;;;;2.30;99.90;;;;;;4978189;28;20344;-73
2023/01/29 10:54:40;;;;;;;;;;;2.40;99.90;;;;;;4986275;28;20393;-72
2023/01/29 10:57:14;;;;;;;;;;;2.50;99.90;;;;;;4989010;28;19926;-74
2023/01/29 10:59:48;;;;;;;;;;;2.40;99.90;;;;;;4986964;28;19937;-74
2023/01/29 11:02:16;;;;;;;;;;;2.50;99.90;;;;;;4987671;28;19925;-73
2023/01/29 11:04:43;;;;;;;;;;;2.60;99.90;;;;;;4987767;28;19933;-73
2023/01/29 11:07:10;;;;;;;;;;;2.70;99.90;;;;;;4983998;28;19930;-73
2023/01/29 11:09:39;;;;;;;;;;;2.60;99.90;;;;;;4988455;28;19980;-69
2023/01/29 11:12:10;;;;;;;;;;;2.50;99.90;;;;;;4985080;28;19961;-70
2023/01/29 11:14:42;;;;;;;;;;;2.40;99.90;;;;;;4992314;28;20400;-69
2023/01/29 11:17:14;;;;;;;;;;;2.20;99.90;;;;;;4987125;28;19988;-70
2023/01/29 11:19:43;;;;;;;;;;;2.20;99.90;;;;;;4987387;28;19980;-68
2023/01/29 11:22:13;;;;;;;;;;;2.20;99.90;;;;;;4980718;28;19969;-68
2023/01/29 11:24:40;;;;;;;;;;;2.20;99.90;;;;;;4988950;28;20389;-67
2023/01/29 11:27:14;;;;;;;;;;;2.20;99.90;;;;;;4991631;28;19976;-67
2023/01/29 11:29:43;;;;;;;;;;;2.20;99.90;;;;;;4983988;28;20038;-66
2023/01/29 11:32:13;;;;;;;;;;;2.00;99.90;;;;;;4989386;28;20393;-67
2023/01/29 11:34:54;;;;;;;;;;;2.10;99.90;;;;;;4974903;28;19926;-69
2023/01/29 11:37:21;;;;;;;;;;;2.30;99.90;;;;;;4989756;28;19929;-70
2023/01/29 11:39:49;;;;;;;;;;;2.30;99.90;;;;;;4981059;28;19938;-72
2023/01/29 11:42:19;;;;;;;;;;;2.10;99.90;;;;;;4984284;28;19936;-72
2023/01/29 11:44:47;;;;;;;;;;;2.10;99.90;;;;;;4975772;28;19926;-72
2023/01/29 11:47:18;;;;;;;;;;;2.40;99.90;;;;;;4971139;28;19971;-69
2023/01/29 11:49:45;;;;;;;;;;;2.60;99.90;;;;;;4977580;28;19934;-70
2023/01/29 11:52:13;;;;;;;;;;;2.80;99.90;;;;;;4976451;28;19926;-72
2023/01/29 11:54:40;;;;;;;;;;;3.00;99.90;;;;;;4982959;28;20364;-72
2023/01/29 11:57:18;;;;;;;;;;;3.20;99.90;;;;;;4985054;28;19926;-71
2023/01/29 11:59:47;;;;;;;;;;;3.40;99.90;;;;;;4984135;28;19929;-70
2023/01/29 12:02:22;;;;;;;;;;;3.20;99.90;;;;;;4980217;28;19980;-70
2023/01/29 12:04:49;;;;;;;;;;;3.00;99.90;;;;;;4969664;28;19976;-72
2023/01/29 12:07:17;;;;;;;;;;;2.90;99.90;;;;;;4986453;28;19933;-71
2023/01/29 12:09:49;;;;;;;;;;;2.70;99.90;;;;;;4972236;28;20279;-71
2023/01/29 12:12:28;;;;;;;;;;;2.70;99.90;;;;;;4975800;28;19984;-72
2023/01/29 12:15:02;;;;;;;;;;;2.70;99.90;;;;;;4971560;28;20344;-69
2023/01/29 12:17:31;;;;;;;;;;;2.70;99.90;;;;;;4987360;28;19925;-70
2023/01/29 12:19:59;;;;;;;;;;;2.60;99.90;;;;;;4971235;28;19926;-71
2023/01/29 12:22:32;;;;;;;;;;;2.50;99.90;;;;;;4967918;28;20021;-72
2023/01/29 12:25:01;;;;;;;;;;;2.60;99.90;;;;;;4975907;28;19926;-71
2023/01/29 12:27:31;;;;;;;;;;;2.50;99.90;;;;;;4982397;28;19926;-73
2023/01/29 12:30:03;;;;;;;;;;;2.50;99.90;;;;;;4985416;28;19925;-70
2023/01/29 12:32:38;;;;;;;;;;;2.60;99.90;;;;;;4986421;28;19933;-70
2023/01/29 12:35:10;;;;;;;;;;;2.50;99.90;;;;;;4985900;28;19925;-71
2023/01/29 12:37:39;;;;;;;;;;;2.70;99.90;;;;;;4981116;28;19930;-69
2023/01/29 12:40:11;;;;;;;;;;;2.60;99.90;;;;;;4976831;28;19988;-71
2023/01/29 12:42:40;;;;;;;;;;;2.60;99.90;;;;;;4970331;28;20397;-71
2023/01/29 12:45:16;;;;;;;;;;;2.60;99.90;;;;;;4972835;28;19973;-71
2023/01/29 12:47:46;;;;;;;;;;;2.80;99.90;;;;;;4974050;28;19926;-70
2023/01/29 12:50:17;;;;;;;;;;;2.90;99.90;;;;;;4976825;28;20027;-70
2023/01/29 12:52:47;;;;;;;;;;;3.00;99.90;;;;;;4978152;28;20396;-70
2023/01/29 12:55:18;;;;;;;;;;;3.00;99.90;;;;;;4976378;28;19933;-70
2023/01/29 12:57:47;;;;;;;;;;;3.00;99.90;;;;;;4981579;28;19926;-70
2023/01/29 13:00:15;;;;;;;;;;;3.10;99.90;;;;;;4980868;28;19925;-70
2023/01/29 13:02:48;;;;;;;;;;;3.00;99.90;;;;;;4974027;28;20021;-71
2023/01/29 13:05:23;;;;;;;;;;;3.00;99.90;;;;;;4976344;28;20015;-70
2023/01/29 13:07:53;;;;;;;;;;;3.00;99.90;;;;;;4980185;28;19926;-71
2023/01/29 13:10:23;;;;;;;;;;;3.00;99.90;;;;;;4983895;28;19926;-71
2023/01/29 13:12:52;;;;;;;;;;;2.90;99.90;;;;;;4981162;28;20021;-69
2023/01/29 13:15:22;;;;;;;;;;;2.90;99.90;;;;;;4980225;28;20389;-70
2023/01/29 13:17:51;;;;;;;;;;;2.90;99.90;;;;;;4990368;28;19926;-71
2023/01/29 13:20:21;;;;;;;;;;;2.80;99.90;;;;;;4977105;28;20026;-71
2023/01/29 13:22:48;;;;;;;;;;;2.90;99.90;;;;;;4986558;28;20013;-71
2023/01/29 13:25:15;;;;;;;;;;;2.90;99.90;;;;;;4986561;28;20032;-71
2023/01/29 13:27:42;;;;;;;;;;;3.00;99.90;;;;;;4989427;28;19930;-72
2023/01/29 13:30:23;;;;;;;;;;;3.00;99.90;;;;;;4988750;28;19961;-69
2023/01/29 13:32:53;;;;;;;;;;;2.90;99.90;;;;;;4989781;28;20044;-72
2023/01/29 13:35:20;;;;;;;;;;;2.90;99.90;;;;;;4980381;28;19972;-71
2023/01/29 13:37:48;;;;;;;;;;;2.90;99.90;;;;;;4982956;28;20009;-71
2023/01/29 13:40:20;;;;;;;;;;;2.80;99.90;;;;;;4989377;28;19957;-71
2023/01/29 13:42:47;;;;;;;;;;;2.90;99.90;;;;;;4976362;28;19930;-70
2023/01/29 13:45:20;;;;;;;;;;;2.90;99.90;;;;;;4982277;28;20344;-71
2023/01/29 13:47:48;;;;;;;;;;;3.00;99.90;;;;;;4978263;28;19926;-72
2023/01/29 13:50:20;;;;;;;;;;;3.00;99.90;;;;;;4984143;28;19926;-71
2023/01/29 13:52:53;;;;;;;;;;;3.10;99.90;;;;;;4983941;28;19931;-70
2023/01/29 13:55:22;;;;;;;;;;;3.10;99.90;;;;;;4973855;28;20356;-72
2023/01/29 13:57:51;;;;;;;;;;;3.10;99.90;;;;;;4983990;28;19965;-71
2023/01/29 14:00:36;;;;;;;;;;;3.00;99.90;;;;;;4975883;28;19984;-70
2023/01/29 14:03:21;;;;;;;;;;;3.00;99.90;;;;;;4973807;28;20345;-71
2023/01/29 14:05:58;;;;;;;;;;;3.00;99.90;;;;;;4979208;28;19961;-71
2023/01/29 14:08:40;;;;;;;;;;;3.00;99.90;;;;;;4979473;28;20401;-71
2023/01/29 14:11:25;;;;;;;;;;;2.90;99.90;;;;;;4984245;28;19968;-73
2023/01/29 14:13:52;;;;;;;;;;;2.90;99.90;;;;;;4988760;28;19934;-70
2023/01/29 14:16:34;;;;;;;;;;;2.90;99.90;;;;;;4988248;28;19985;-72
2023/01/29 14:19:01;;;;;;;;;;;2.90;99.90;;;;;;4970915;28;19930;-69
2023/01/29 14:21:30;;;;;;;;;;;2.90;99.90;;;;;;4984748;28;19925;-72
2023/01/29 14:23:58;;;;;;;;;;;2.90;99.90;;;;;;4982919;28;20374;-73
2023/01/29 14:26:30;;;;;;;;;;;2.90;99.90;;;;;;4980790;28;19976;-71
2023/01/29 14:29:00;;;;;;;;;;;2.80;99.90;;;;;;4984030;28;19951;-71
2023/01/29 14:31:31;;;;;;;;;;;2.80;99.90;;;;;;4986676;28;20409;-72
2023/01/29 14:34:01;;;;;;;;;;;2.80;99.90;;;;;;4985612;28;20282;-69
2023/01/29 14:36:31;;;;;;;;;;;2.80;99.90;;;;;;4982861;28;20009;-68
2023/01/29 14:38:59;;;;;;;;;;;2.80;99.90;;;;;;4975979;28;19929;-70
2023/01/29 14:41:27;;;;;;;;;;;2.80;99.90;;;;;;4984406;28;19925;-71
2023/01/29 14:44:08;;;;;;;;;;;2.80;99.90;;;;;;4971936;28;20447;-71
2023/01/29 14:46:43;;;;;;;;;;;2.80;99.90;;;;;;4978849;28;19934;-71
2023/01/29 14:49:10;;;;;;;;;;;2.80;99.90;;;;;;4972872;28;19930;-71
2023/01/29 14:51:40;;;;;;;;;;;2.80;99.90;;;;;;4982755;28;20353;-71
2023/01/29 14:54:14;;;;;;;;;;;2.70;99.90;;;;;;4973836;28;19926;-67
2023/01/29 14:56:44;;;;;;;;;;;2.70;99.90;;;;;;4978180;28;20425;-68
2023/01/29 14:59:17;;;;;;;;;;;2.70;99.90;;;;;;4976457;28;19930;-70
2023/01/29 15:01:47;;;;;;;;;;;2.70;99.90;;;;;;4970794;28;20444;-71
2023/01/29 15:04:18;;;;;;;;;;;2.70;99.90;;;;;;4979826;28;19926;-70
2023/01/29 15:06:47;;;;;;;;;;;2.70;99.90;;;;;;4980286;28;20027;-72
2023/01/29 15:09:15;;;;;;;;;;;2.60;99.90;;;;;;4979027;28;19929;-70
2023/01/29 15:11:47;;;;;;;;;;;2.70;99.90;;;;;;4982813;28;19984;-70
2023/01/29 15:14:17;;;;;;;;;;;2.60;99.90;;;;;;4984388;28;19926;-70
2023/01/29 15:16:48;;;;;;;;;;;2.60;99.90;;;;;;4979993;28;19938;-70
2023/01/29 15:19:16;;;;;;;;;;;2.50;99.90;;;;;;4982178;28;19929;-72
2023/01/29 15:21:58;;;;;;;;;;;2.50;99.90;;;;;;4969267;28;20366;-71
2023/01/29 15:24:26;;;;;;;;;;;2.50;99.90;;;;;;4994642;28;19961;-69
2023/01/29 15:26:53;;;;;;;;;;;2.50;99.90;;;;;;4971953;28;20017;-71
2023/01/29 15:29:23;;;;;;;;;;;2.50;99.90;;;;;;4984937;28;19953;-71
2023/01/29 15:31:49;;;;;;;;;;;2.40;99.90;;;;;;4988651;28;19980;-72
2023/01/29 15:34:16;;;;;;;;;;;2.40;99.90;;;;;;4973137;28;19957;-70
2023/01/29 15:36:43;;;;;;;;;;;2.40;99.90;;;;;;4989230;28;20421;-70
2023/01/29 15:39:15;;;;;;;;;;;2.40;99.90;;;;;;4988615;28;20637;-73
2023/01/29 15:41:43;;;;;;;;;;;2.30;99.90;;;;;;4989127;28;19952;-71
2023/01/29 15:44:12;;;;;;;;;;;2.30;99.90;;;;;;4987983;28;19972;-71
2023/01/29 15:46:40;;;;;;;;;;;2.30;99.90;;;;;;4970385;28;19938;-69
2023/01/29 15:49:07;;;;;;;;;;;2.30;99.90;;;;;;4975149;28;19934;-70
2023/01/29 15:51:34;;;;;;;;;;;2.30;99.90;;;;;;4981238;28;20178;-71
2023/01/29 15:54:02;;;;;;;;;;;2.30;99.90;;;;;;4986163;28;19962;-71
2023/01/29 15:56:32;;;;;;;;;;;2.20;99.90;;;;;;4984259;28;20364;-72
2023/01/29 15:59:01;;;;;;;;;;;2.20;99.90;;;;;;4982162;28;19929;-75
2023/01/29 16:01:28;;;;;;;;;;;2.20;99.90;;;;;;4974268;28;19926;-69
2023/01/29 16:03:56;;;;;;;;;;;2.20;99.90;;;;;;4986046;28;19929;-74
2023/01/29 16:06:24;;;;;;;;;;;2.20;99.90;;;;;;4987012;28;19930;-72
2023/01/29 16:08:52;;;;;;;;;;;2.10;99.90;;;;;;4999081;28;19949;-69
2023/01/29 16:11:19;;;;;;;;;;;2.10;99.90;;;;;;4987682;28;19926;-68
2023/01/29 16:13:47;;;;;;;;;;;2.10;99.90;;;;;;4983003;28;19969;-71
2023/01/29 16:16:23;;;;;;;;;;;2.10;99.90;;;;;;4987056;28;19955;-71
2023/01/29 16:18:50;;;;;;;;;;;2.10;99.90;;;;;;4979929;28;19934;-71
2023/01/29 16:21:22;;;;;;;;;;;2.10;99.90;;;;;;4984359;28;19936;-68
2023/01/29 16:23:51;;;;;;;;;;;2.10;99.90;;;;;;4984595;28;19981;-70
2023/01/29 16:26:18;;;;;;;;;;;2.10;99.90;;;;;;4966420;28;20424;-69
2023/01/29 16:28:46;;;;;;;;;;;2.10;99.90;;;;;;4973358;28;20337;-69
2023/01/29 16:34:08;;;;;;;;;;;2.10;99.90;;;;;;4991885;23;19949;-68
2023/01/29 16:36:35;;;;;;;;;;;2.10;99.90;;;;;;4954702;28;19977;-72
2023/01/29 16:39:04;;;;;;;;;;;2.10;99.90;;;;;;4968161;28;19926;-71
2023/01/29 16:41:31;;;;;;;;;;;2.00;99.90;;;;;;4969919;28;20412;-70
2023/01/29 16:44:00;;;;;;;;;;;2.00;99.90;;;;;;4951522;28;19954;-71
2023/01/29 16:46:31;;;;;;;;;;;2.10;99.90;;;;;;4961771;28;19927;-70
2023/01/29 16:48:58;;;;;;;;;;;2.20;99.90;;;;;;4978230;28;20353;-69
2023/01/29 16:51:28;;;;;;;;;;;2.10;99.90;;;;;;4939720;28;19976;-71
2023/01/29 16:53:59;;;;;;;;;;;2.10;99.90;;;;;;4964476;28;19926;-70
2023/01/29 16:56:27;;;;;;;;;;;2.10;99.90;;;;;;4964669;28;19926;-71
2023/01/29 16:58:54;;;;;;;;;;;2.10;99.90;;;;;;4966471;28;19926;-71
2023/01/29 17:01:22;;;;;;;;;;;2.10;99.90;;;;;;4964083;28;19938;-69
2023/01/29 17:03:52;;;;;;;;;;;2.10;99.90;;;;;;4971103;28;19927;-71
2023/01/29 17:06:21;;;;;;;;;;;2.10;99.90;;;;;;4960211;28;20324;-70
2023/01/29 17:08:49;;;;;;;;;;;2.10;99.90;;;;;;4941816;28;19942;-69
2023/01/29 17:11:24;;;;;;;;;;;2.10;99.90;;;;;;4969392;28;19927;-71
2023/01/29 17:13:51;;;;;;;;;;;2.10;99.90;;;;;;4945975;28;19937;-70
2023/01/29 17:16:22;;;;;;;;;;;2.00;99.90;;;;;;4965912;28;19990;-67
2023/01/29 17:18:49;;;;;;;;;;;2.10;99.90;;;;;;4978770;28;20353;-71
2023/01/29 17:21:16;;;;;;;;;;;2.00;99.90;;;;;;4949927;28;19933;-68
2023/01/29 17:23:42;;;;;;;;;;;2.10;99.90;;;;;;4973302;28;20295;-70
2023/01/29 17:26:12;;;;;;;;;;;2.00;99.90;;;;;;4968276;28;19966;-70
2023/01/29 17:28:39;;;;;;;;;;;2.00;99.90;;;;;;4968150;28;19926;-70
2023/01/29 17:31:06;;;;;;;;;;;2.00;99.90;;;;;;4963649;28;20421;-70
2023/01/29 17:33:33;;;;;;;;;;;2.00;99.90;;;;;;4952855;28;19930;-69
2023/01/29 17:36:00;;;;;;;;;;;2.10;99.90;;;;;;4964183;28;19931;-70
2023/01/29 17:38:27;;;;;;;;;;;2.00;99.90;;;;;;4966058;28;19927;-70
2023/01/29 17:40:55;;;;;;;;;;;2.10;99.90;;;;;;4965713;28;19926;-68
2023/01/29 17:43:24;;;;;;;;;;;2.00;99.90;;;;;;4967608;28;19927;-70
2023/01/29 17:45:50;;;;;;;;;;;2.00;99.90;;;;;;4966587;28;19927;-70
2023/01/29 17:48:19;;;;;;;;;;;2.00;99.90;;;;;;4967042;28;19934;-70
2023/01/29 17:50:47;;;;;;;;;;;2.00;99.90;;;;;;4967835;28;19930;-68
2023/01/29 17:53:14;;;;;;;;;;;2.00;99.90;;;;;;4964355;28;19926;-69
2023/01/29 17:55:41;;;;;;;;;;;2.00;99.90;;;;;;4971172;28;19946;-69
2023/01/29 17:58:13;;;;;;;;;;;2.00;99.90;;;;;;4968379;28;20354;-70
2023/01/29 18:00:41;;;;;;;;;;;2.00;99.90;;;;;;4987616;28;20361;-70
2023/01/29 18:03:08;;;;;;;;;;;2.10;99.90;;;;;;4969443;28;19926;-70
2023/01/29 18:05:34;;;;;;;;;;;2.10;99.90;;;;;;4976788;28;19926;-70
2023/01/29 18:08:01;;;;;;;;;;;2.10;99.90;;;;;;4979291;28;19930;-71
2023/01/29 18:10:28;;;;;;;;;;;2.10;99.90;;;;;;4987279;28;20013;-70
2023/01/29 18:12:55;;;;;;;;;;;2.10;99.90;;;;;;4969514;28;19933;-71
2023/01/29 18:15:22;;;;;;;;;;;2.10;99.90;;;;;;4965877;28;20286;-74
2023/01/29 18:17:51;;;;;;;;;;;2.10;99.90;;;;;;4981133;28;19934;-69
2023/01/29 18:20:19;;;;;;;;;;;2.10;99.90;;;;;;4970422;28;19969;-73
2023/01/29 18:22:47;;;;;;;;;;;2.10;99.90;;;;;;4981463;28;19927;-70
2023/01/29 18:25:13;;;;;;;;;;;2.10;99.90;;;;;;4971156;28;19930;-72
2023/01/29 18:27:40;;;;;;;;;;;2.10;99.90;;;;;;4966301;28;19926;-71
2023/01/29 18:30:08;;;;;;;;;;;2.10;99.90;;;;;;4969250;28;19953;-71
2023/01/29 18:32:35;;;;;;;;;;;2.10;99.90;;;;;;4966542;28;19927;-70
2023/01/29 18:35:04;;;;;;;;;;;2.10;99.90;;;;;;4969900;28;19977;-75
2023/01/29 18:37:31;;;;;;;;;;;2.10;99.90;;;;;;4969704;28;19933;-73
2023/01/29 18:39:58;;;;;;;;;;;2.20;99.90;;;;;;4970226;28;19926;-71
2023/01/29 18:42:25;;;;;;;;;;;2.10;99.90;;;;;;4950593;28;20022;-73